createdAt,value
2022-08-18T00:03:56.795Z,58.55
2022-08-18T00:09:03.535Z,59.75
2022-08-18T00:14:05.682Z,58.28
2022-08-18T00:19:09.353Z,57.17
2022-08-18T00:24:11.402Z,57.19
2022-08-18T00:29:12.934Z,58.00
2022-08-18T00:34:14.564Z,57.79
2022-08-18T00:39:16.367Z,58.08
2022-08-18T00:44:17.915Z,59.39
2022-08-18T00:49:19.520Z,59.89
2022-08-18T00:54:24.965Z,60.25
2022-08-18T00:59:31.964Z,59.90
2022-08-18T01:04:44.486Z,59.49
2022-08-18T01:09:50.866Z,60.22
2022-08-18T01:14:52.790Z,60.25
2022-08-18T01:20:13.310Z,60.62
2022-08-18T01:25:35.519Z,61.29
2022-08-18T01:30:50.011Z,60.13
2022-08-18T01:35:51.628Z,60.70
2022-08-18T01:41:25.162Z,60.12
2022-08-18T01:46:20.200Z,60.50
2022-08-18T01:51:38.860Z,60.09
2022-08-18T01:56:43.396Z,60.33
2022-08-18T02:01:50.404Z,60.26
2022-08-18T02:06:56.162Z,61.38
2022-08-18T02:11:59.228Z,61.27
2022-08-18T02:17:02.904Z,62.21
2022-08-18T02:22:06.050Z,60.58
2022-08-18T02:27:09.055Z,61.12
2022-08-18T02:32:10.738Z,60.76
2022-08-18T02:37:15.298Z,61.93
2022-08-18T02:42:17.699Z,62.86
2022-08-18T02:47:20.780Z,63.93
2022-08-18T02:52:22.652Z,62.25
2022-08-18T02:57:24.314Z,62.39
2022-08-18T03:02:25.891Z,63.10
2022-08-18T03:07:27.498Z,63.98
2022-08-18T03:12:29.369Z,63.42
2022-08-18T03:17:31.808Z,63.87
2022-08-18T03:22:34.117Z,63.75
2022-08-18T03:27:35.917Z,63.99
2022-08-18T03:32:37.476Z,64.84
2022-08-18T03:37:39.169Z,64.01
2022-08-18T03:42:40.859Z,63.92
2022-08-18T03:47:42.462Z,64.94
2022-08-18T03:52:48.516Z,64.56
2022-08-18T03:57:52.910Z,65.13
2022-08-18T04:02:54.726Z,64.30
2022-08-18T04:07:57.241Z,62.15
2022-08-18T04:12:58.871Z,62.66
2022-08-18T04:18:04.460Z,63.67
2022-08-18T04:23:06.332Z,64.61
2022-08-18T04:28:07.924Z,64.75
2022-08-18T04:33:09.463Z,63.45
2022-08-18T04:38:11.001Z,63.19
2022-08-18T04:43:15.279Z,64.28
2022-08-18T04:48:17.024Z,62.67
2022-08-18T04:53:37.846Z,62.64
2022-08-18T04:58:39.483Z,61.73
2022-08-18T05:03:50.406Z,62.21
2022-08-18T05:08:54.373Z,62.67
2022-08-18T05:13:57.861Z,61.80
2022-08-18T05:19:03.054Z,61.45
2022-08-18T05:24:09.228Z,61.31
2022-08-18T05:29:19.109Z,60.76
2022-08-18T05:34:21.794Z,60.12
2022-08-18T05:39:53.482Z,60.64
2022-08-18T05:44:55.813Z,61.00
2022-08-18T05:50:03.703Z,60.91
2022-08-18T05:55:28.890Z,60.05
2022-08-18T06:00:31.079Z,58.27
2022-08-18T06:05:36.534Z,57.41
2022-08-18T06:10:40.016Z,56.94
2022-08-18T06:15:59.614Z,56.12
2022-08-18T06:21:38.329Z,55.43
2022-08-18T06:27:07.195Z,54.81
2022-08-18T06:32:30.014Z,54.50
2022-08-18T06:37:58.761Z,53.89
2022-08-18T06:43:02.060Z,53.82
2022-08-18T06:48:16.049Z,53.18
2022-08-18T06:53:27.304Z,52.27
2022-08-18T06:58:30.690Z,51.98
2022-08-18T07:03:35.341Z,51.37
2022-08-18T07:08:41.266Z,51.22
2022-08-18T07:13:44.993Z,51.31
2022-08-18T07:18:46.962Z,51.23
2022-08-18T07:24:23.178Z,51.73
2022-08-18T07:29:20.199Z,51.37
2022-08-18T07:34:37.522Z,51.62
2022-08-18T07:39:49.566Z,51.46
2022-08-18T07:44:59.477Z,51.67
2022-08-18T07:50:36.212Z,51.28
2022-08-18T07:55:35.256Z,50.74
2022-08-18T08:01:10.733Z,50.99
2022-08-18T08:06:30.689Z,51.07
2022-08-18T08:11:55.809Z,51.58
2022-08-18T08:17:23.777Z,51.57
2022-08-18T08:22:52.774Z,51.47
2022-08-18T08:28:09.524Z,51.04
2022-08-18T08:33:21.196Z,51.45
2022-08-18T08:38:46.579Z,51.34
2022-08-18T08:44:14.397Z,51.59
2022-08-18T08:49:38.238Z,49.88
2022-08-18T08:55:02.853Z,48.28
2022-08-18T09:00:07.540Z,48.73
2022-08-18T09:05:13.897Z,49.15
2022-08-18T09:10:24.607Z,49.34
2022-08-18T09:15:26.344Z,48.69
2022-08-18T09:20:49.006Z,48.36
2022-08-18T09:25:55.016Z,48.56
2022-08-18T09:31:08.738Z,48.37
2022-08-18T09:36:28.679Z,48.73
2022-08-18T09:41:36.070Z,48.34
2022-08-18T09:46:43.863Z,47.92
2022-08-18T09:51:45.480Z,47.19
2022-08-18T09:56:54.358Z,47.09
2022-08-18T10:01:57.411Z,47.39
2022-08-18T10:07:43.301Z,46.58
2022-08-18T10:13:29.677Z,46.69
2022-08-18T10:18:58.271Z,47.13
2022-08-18T10:24:35.329Z,46.86
2022-08-18T10:29:48.464Z,46.86
2022-08-18T10:34:58.292Z,46.75
2022-08-18T10:40:04.454Z,46.43
2022-08-18T10:45:16.034Z,46.68
2022-08-18T10:50:26.513Z,46.88
2022-08-18T10:55:48.706Z,46.84
2022-08-18T11:01:07.270Z,46.87
2022-08-18T11:06:18.059Z,46.80
2022-08-18T11:11:37.274Z,47.41
2022-08-18T11:16:42.361Z,46.98
2022-08-18T11:21:51.406Z,47.27
2022-08-18T11:26:59.515Z,47.09
2022-08-18T11:32:25.392Z,46.87
2022-08-18T11:37:51.321Z,47.00
2022-08-18T11:43:01.479Z,48.05
2022-08-18T11:48:46.399Z,48.81
2022-08-18T11:59:52.430Z,49.01
2022-08-18T12:04:57.545Z,48.68
2022-08-18T12:10:19.269Z,48.97
2022-08-18T12:15:29.581Z,49.22
2022-08-18T12:20:49.274Z,49.62
2022-08-18T12:25:52.975Z,49.91
2022-08-18T12:30:56.811Z,49.96
2022-08-18T12:35:59.730Z,49.86
2022-08-18T12:41:01.552Z,49.39
2022-08-18T12:46:04.841Z,49.15
2022-08-18T12:51:07.352Z,49.17
2022-08-18T12:56:22.744Z,48.71
2022-08-18T13:01:27.115Z,48.58
2022-08-18T13:06:28.818Z,49.04
2022-08-18T13:11:30.420Z,48.42
2022-08-18T13:16:38.768Z,48.69
2022-08-18T13:21:57.072Z,48.49
2022-08-18T13:26:58.856Z,49.23
2022-08-18T13:32:00.712Z,49.21
2022-08-18T13:37:02.434Z,48.71
2022-08-18T13:42:26.750Z,48.74
2022-08-18T13:47:28.485Z,48.68
2022-08-18T13:52:35.577Z,48.90
2022-08-18T13:57:40.218Z,49.43
2022-08-18T14:02:41.926Z,49.44
2022-08-18T14:07:46.179Z,49.67
2022-08-18T14:12:47.833Z,50.31
2022-08-18T14:17:51.514Z,50.51
2022-08-18T14:23:14.220Z,50.66
2022-08-18T14:28:26.271Z,50.12
2022-08-18T14:33:49.753Z,50.41
2022-08-18T14:38:52.030Z,50.84
2022-08-18T14:44:12.238Z,51.03
2022-08-18T14:49:15.409Z,51.30
2022-08-18T14:54:31.850Z,51.26
2022-08-18T14:59:34.548Z,51.67
2022-08-18T15:04:55.916Z,51.62
2022-08-18T15:10:15.084Z,51.82
2022-08-18T15:15:18.814Z,52.14
2022-08-18T15:20:29.436Z,52.37
2022-08-18T15:25:51.192Z,52.41
2022-08-18T15:31:16.791Z,52.30
2022-08-18T15:36:16.604Z,52.23
2022-08-18T15:41:43.807Z,52.54
2022-08-18T15:46:53.333Z,53.38
2022-08-18T15:51:55.118Z,53.12
2022-08-18T15:56:58.816Z,53.42
2022-08-18T16:02:00.955Z,53.79
2022-08-18T16:07:02.608Z,53.57
2022-08-18T16:12:04.542Z,53.90
2022-08-18T16:17:09.409Z,53.95
2022-08-18T16:22:19.685Z,54.21
2022-08-18T16:27:23.445Z,54.45
2022-08-18T16:32:25.110Z,54.53
2022-08-18T16:37:27.220Z,54.35
2022-08-18T16:42:32.614Z,53.59
2022-08-18T16:47:38.962Z,54.64
2022-08-18T16:52:40.935Z,55.50
2022-08-18T16:58:02.370Z,55.19
2022-08-18T17:03:24.293Z,55.80
2022-08-18T17:08:26.151Z,55.39
2022-08-18T17:13:27.901Z,55.55
2022-08-18T17:18:30.530Z,55.57
2022-08-18T17:23:32.718Z,55.93
2022-08-18T17:28:50.582Z,56.19
2022-08-18T17:33:57.647Z,56.54
2022-08-18T17:39:02.255Z,56.53
2022-08-18T17:44:06.739Z,56.65
2022-08-18T17:49:54.416Z,56.90
2022-08-18T17:55:20.366Z,57.12
2022-08-18T18:00:22.835Z,57.30
2022-08-18T18:05:32.978Z,57.36
2022-08-18T18:10:51.005Z,57.14
2022-08-18T18:16:23.339Z,57.55
2022-08-18T18:21:53.596Z,57.77
2022-08-18T18:26:48.211Z,64.69
2022-08-18T18:31:57.778Z,68.29
2022-08-18T18:37:01.519Z,72.08
2022-08-18T18:42:17.638Z,75.32
2022-08-18T18:47:45.666Z,75.56
2022-08-18T18:53:05.842Z,75.27
2022-08-18T18:58:45.663Z,77.51
2022-08-18T19:03:53.881Z,80.20
2022-08-18T19:09:01.378Z,79.18
2022-08-18T19:14:07.444Z,78.78
2022-08-18T19:19:35.477Z,80.10
2022-08-18T19:24:45.533Z,78.52
2022-08-18T19:29:47.568Z,77.40
2022-08-18T19:34:51.345Z,75.45
2022-08-18T19:40:07.845Z,76.33
2022-08-18T19:45:25.400Z,72.87
2022-08-18T19:50:38.555Z,70.06
2022-08-18T19:55:47.407Z,69.46
2022-08-18T20:00:56.873Z,69.38
2022-08-18T20:06:34.787Z,69.88
2022-08-18T20:11:42.041Z,71.17
2022-08-18T20:17:09.537Z,70.66
2022-08-18T20:22:28.508Z,71.67
2022-08-18T20:27:35.736Z,72.15
2022-08-18T20:32:37.716Z,70.80
2022-08-18T20:37:42.631Z,71.01
2022-08-18T20:42:51.510Z,71.01
2022-08-18T20:48:10.619Z,70.39
2022-08-18T20:53:50.395Z,70.93
2022-08-18T20:59:04.013Z,70.57
2022-08-18T21:04:10.662Z,69.73
2022-08-18T21:09:17.579Z,70.38
2022-08-18T21:14:29.996Z,70.60
2022-08-18T21:19:31.721Z,71.20
2022-08-18T21:24:39.060Z,70.93
2022-08-18T21:29:47.538Z,71.46
2022-08-18T21:34:51.547Z,71.71
2022-08-18T21:39:56.570Z,72.04
2022-08-18T21:45:01.064Z,71.53
2022-08-18T21:50:10.654Z,72.34
2022-08-18T21:55:30.089Z,72.96
2022-08-18T22:00:36.262Z,74.25
2022-08-18T22:05:58.924Z,74.24
2022-08-18T22:11:41.843Z,74.55
2022-08-18T22:17:31.438Z,74.84
2022-08-18T22:22:52.685Z,75.34
2022-08-18T22:27:56.930Z,75.05
2022-08-18T22:32:59.517Z,75.67
2022-08-18T22:38:01.591Z,75.92
2022-08-18T22:43:03.206Z,75.76
2022-08-18T22:48:04.907Z,75.88
2022-08-18T22:53:06.517Z,75.73
2022-08-18T22:58:08.210Z,75.75
2022-08-18T23:03:12.358Z,76.38
2022-08-18T23:08:13.962Z,75.63
2022-08-18T23:13:17.057Z,75.58
2022-08-18T23:18:20.570Z,76.38
2022-08-18T23:23:23.856Z,76.23
2022-08-18T23:28:27.165Z,75.94
2022-08-18T23:33:28.822Z,76.44
2022-08-18T23:38:31.814Z,76.84
2022-08-18T23:43:35.927Z,76.98
2022-08-18T23:48:37.753Z,76.84
2022-08-18T23:53:39.644Z,76.75
2022-08-18T23:58:41.230Z,76.18
